createdAt,value
2022-12-23T00:01:02.954Z,98864.60
2022-12-23T00:06:18.180Z,98862.40
2022-12-23T00:11:29.017Z,98869.20
2022-12-23T00:16:41.024Z,98885.80
2022-12-23T00:21:50.831Z,98890.40
2022-12-23T00:27:00.608Z,98895.00
2022-12-23T00:32:10.327Z,98892.20
2022-12-23T00:37:20.093Z,98900.00
2022-12-23T00:42:47.414Z,98901.60
2022-12-23T00:48:14.351Z,98905.60
2022-12-23T00:53:24.609Z,98910.20
2022-12-23T00:58:34.376Z,98912.40
2022-12-23T01:04:01.389Z,98920.60
2022-12-23T01:09:11.590Z,98924.40
2022-12-23T01:14:21.747Z,98916.80
2022-12-23T01:19:32.859Z,98913.40
2022-12-23T01:24:42.635Z,98909.60
2022-12-23T01:29:52.638Z,98923.80
2022-12-23T01:35:02.283Z,98926.80
2022-12-23T01:40:14.555Z,98921.20
2022-12-23T01:45:29.982Z,98923.80
2022-12-23T01:50:46.638Z,98935.80
2022-12-23T01:56:01.006Z,98941.60
2022-12-23T02:01:29.708Z,98946.20
2022-12-23T02:07:01.721Z,98948.00
2022-12-23T02:12:47.331Z,98941.00
2022-12-23T02:18:13.879Z,98952.40
2022-12-23T02:24:01.329Z,98947.00
2022-12-23T02:29:46.724Z,98944.80
2022-12-23T02:35:08.123Z,98940.40
2022-12-23T02:40:30.681Z,98943.40
2022-12-23T02:45:45.306Z,98942.80
2022-12-23T02:50:58.408Z,98945.20
2022-12-23T02:56:11.844Z,98950.40
2022-12-23T03:01:24.979Z,98949.20
2022-12-23T03:06:42.371Z,98960.00
2022-12-23T03:12:07.281Z,98958.40
2022-12-23T03:17:39.061Z,98955.20
2022-12-23T03:23:02.748Z,98945.60
2022-12-23T03:28:23.230Z,98945.20
2022-12-23T03:33:37.743Z,98950.00
2022-12-23T03:38:50.302Z,98952.20
2022-12-23T03:44:05.839Z,98946.40
2022-12-23T03:49:22.053Z,98958.20
2022-12-23T03:54:42.615Z,98949.00
2022-12-23T03:59:54.406Z,98949.60
2022-12-23T04:05:22.357Z,98951.80
2022-12-23T04:10:33.482Z,98959.40
2022-12-23T04:15:45.835Z,98956.00
2022-12-23T04:20:55.611Z,98954.60
2022-12-23T04:26:05.344Z,98945.60
2022-12-23T04:31:15.021Z,98936.80
2022-12-23T04:36:24.656Z,98936.00
2022-12-23T04:41:34.396Z,98949.00
2022-12-23T04:46:44.463Z,98949.00
2022-12-23T04:51:54.547Z,98956.40
2022-12-23T04:57:04.296Z,98964.40
2022-12-23T05:02:14.144Z,98963.40
2022-12-23T05:07:24.280Z,98963.80
2022-12-23T05:12:34.794Z,98960.60
2022-12-23T05:17:44.672Z,98956.20
2022-12-23T05:22:54.502Z,98953.00
2022-12-23T05:28:04.535Z,98957.80
2022-12-23T05:33:14.320Z,98957.40
2022-12-23T05:38:24.139Z,98960.60
2022-12-23T05:43:40.584Z,98968.00
2022-12-23T05:48:55.091Z,98960.60
2022-12-23T05:54:06.624Z,98958.20
2022-12-23T05:59:16.579Z,98962.00
2022-12-23T06:04:26.424Z,98960.00
2022-12-23T06:09:36.209Z,98975.00
2022-12-23T06:14:45.996Z,98974.60
2022-12-23T06:19:55.629Z,98976.80
2022-12-23T06:25:05.858Z,98980.20
2022-12-23T06:30:17.176Z,98991.20
2022-12-23T06:35:26.820Z,98986.20
2022-12-23T06:40:36.702Z,98996.80
2022-12-23T06:45:49.951Z,98999.40
2022-12-23T06:50:59.754Z,98998.80
2022-12-23T06:56:10.651Z,99002.80
2022-12-23T07:01:20.487Z,99015.80
2022-12-23T07:06:30.145Z,99008.20
2022-12-23T07:11:39.732Z,99006.60
2022-12-23T07:16:49.740Z,99015.60
2022-12-23T07:21:59.557Z,99012.20
2022-12-23T07:27:09.646Z,99013.80
2022-12-23T07:32:19.356Z,99008.20
2022-12-23T07:37:29.381Z,99009.20
2022-12-23T07:42:47.134Z,99014.20
2022-12-23T07:48:00.092Z,99009.40
2022-12-23T07:53:09.949Z,99013.20
2022-12-23T07:58:19.903Z,99023.80
2022-12-23T08:03:29.724Z,99028.20
2022-12-23T08:08:41.121Z,99026.00
2022-12-23T08:13:53.191Z,99019.60
2022-12-23T08:19:03.384Z,99013.00
2022-12-23T08:24:13.953Z,99005.80
2022-12-23T08:29:23.794Z,99011.60
2022-12-23T08:34:34.542Z,99027.40
2022-12-23T08:39:45.564Z,99029.20
2022-12-23T08:44:55.644Z,99030.40
2022-12-23T08:50:05.980Z,99028.80
2022-12-23T08:55:16.071Z,99043.20
2022-12-23T09:00:26.983Z,99039.60
2022-12-23T09:05:40.634Z,99027.00
2022-12-23T09:10:50.305Z,99025.00
2022-12-23T09:16:00.207Z,99027.40
2022-12-23T09:21:17.004Z,99025.00
2022-12-23T09:26:30.320Z,99025.60
2022-12-23T09:31:39.990Z,99020.00
2022-12-23T09:36:55.076Z,99018.60
2022-12-23T09:42:17.570Z,99017.40
2022-12-23T09:47:31.102Z,99010.40
2022-12-23T09:52:51.572Z,99007.00
2022-12-23T09:58:09.402Z,99016.80
2022-12-23T10:03:27.704Z,99011.40
2022-12-23T10:08:43.408Z,99007.80
2022-12-23T10:13:58.523Z,99006.40
2022-12-23T10:19:15.674Z,98998.40
2022-12-23T10:24:29.931Z,98998.80
2022-12-23T10:29:40.388Z,98994.60
2022-12-23T10:34:58.890Z,98983.00
2022-12-23T10:40:22.690Z,98981.40
2022-12-23T10:45:52.391Z,98972.20
2022-12-23T10:51:06.747Z,98973.20
2022-12-23T10:56:17.193Z,98974.60
2022-12-23T11:01:28.711Z,98964.40
2022-12-23T11:06:44.167Z,98960.00
2022-12-23T11:12:06.656Z,98952.20
2022-12-23T11:17:28.418Z,98951.60
2022-12-23T11:22:38.468Z,98952.20
2022-12-23T11:27:50.196Z,98940.20
2022-12-23T11:33:00.538Z,98931.40
2022-12-23T11:38:18.000Z,98924.60
2022-12-23T11:43:29.578Z,98929.00
2022-12-23T11:48:39.472Z,98925.80
2022-12-23T11:53:49.582Z,98924.60
2022-12-23T11:59:05.505Z,98925.80
2022-12-23T12:04:26.330Z,98941.60
2022-12-23T12:09:41.263Z,98951.80
2022-12-23T12:14:55.402Z,98956.00
2022-12-23T12:20:20.450Z,98955.20
2022-12-23T12:25:44.498Z,98964.60
2022-12-23T12:31:04.229Z,98958.40
2022-12-23T12:36:22.918Z,98950.80
2022-12-23T12:41:41.435Z,98958.80
2022-12-23T12:46:57.628Z,98965.00
2022-12-23T12:52:13.004Z,98961.40
2022-12-23T12:57:25.146Z,98956.20
2022-12-23T13:03:13.016Z,98962.00
2022-12-23T13:09:01.683Z,98956.40
2022-12-23T13:14:26.329Z,98962.00
2022-12-23T13:19:49.677Z,98966.80
2022-12-23T13:25:10.267Z,98968.60
2022-12-23T13:30:21.835Z,98973.40
2022-12-23T13:35:49.700Z,98966.60
2022-12-23T13:41:08.368Z,98961.20
2022-12-23T13:46:33.059Z,98961.80
2022-12-23T13:51:55.020Z,98958.80
2022-12-23T13:57:18.297Z,98958.60
2022-12-23T14:02:54.651Z,98961.40
2022-12-23T14:08:07.471Z,98960.20
2022-12-23T14:13:24.741Z,98957.40
2022-12-23T14:19:16.712Z,98959.60
2022-12-23T14:25:04.060Z,98953.80
2022-12-23T14:30:23.358Z,98959.60
2022-12-23T14:36:15.769Z,98958.60
2022-12-23T14:41:38.367Z,98960.00
2022-12-23T14:47:01.803Z,98954.80
2022-12-23T14:53:00.570Z,98958.20
2022-12-23T14:58:49.252Z,98951.20
2022-12-23T15:04:07.498Z,98971.40
2022-12-23T15:09:28.281Z,98976.20
2022-12-23T15:14:46.305Z,98974.20
2022-12-23T15:20:03.877Z,98983.00
2022-12-23T15:25:26.688Z,98982.40
2022-12-23T15:30:48.974Z,98986.40
2022-12-23T15:35:59.463Z,98979.00
2022-12-23T15:41:19.093Z,98980.00
2022-12-23T15:46:30.624Z,98989.80
2022-12-23T15:52:07.260Z,99010.80
2022-12-23T15:57:23.726Z,99011.60
2022-12-23T16:08:30.288Z,99000.60
2022-12-23T16:13:46.736Z,99004.80
2022-12-23T16:18:57.994Z,99010.00
2022-12-23T16:24:14.716Z,99016.20
2022-12-23T16:29:25.061Z,99025.40
2022-12-23T16:34:35.774Z,99015.00
2022-12-23T16:39:46.348Z,99009.20
2022-12-23T16:44:56.076Z,99011.00
2022-12-23T16:50:06.712Z,99021.80
2022-12-23T16:55:22.551Z,99013.60
2022-12-23T17:00:32.416Z,99022.20
2022-12-23T17:05:42.003Z,99034.80
2022-12-23T17:10:52.129Z,99037.40
2022-12-23T17:16:02.516Z,99033.60
2022-12-23T17:21:24.738Z,99021.60
2022-12-23T17:26:34.865Z,99037.60
2022-12-23T17:31:46.072Z,99040.60
2022-12-23T17:36:56.020Z,99032.40
2022-12-23T17:42:06.347Z,99037.80
2022-12-23T17:47:20.371Z,99045.00
2022-12-23T17:52:30.371Z,99037.40
2022-12-23T17:57:40.439Z,99012.80
2022-12-23T18:02:50.961Z,99013.00
2022-12-23T18:08:04.307Z,99013.20
2022-12-23T18:13:22.557Z,99013.40
2022-12-23T18:18:43.802Z,99025.20
2022-12-23T18:23:58.955Z,99033.00
2022-12-23T18:29:08.909Z,99035.80
2022-12-23T18:34:21.337Z,99040.00
2022-12-23T18:39:31.102Z,99037.20
2022-12-23T18:44:40.941Z,99045.80
2022-12-23T18:49:50.468Z,99039.40
2022-12-23T18:55:00.365Z,99043.60
2022-12-23T19:00:16.612Z,99061.20
2022-12-23T19:05:30.241Z,99060.40
2022-12-23T19:10:39.945Z,99059.20
2022-12-23T19:15:50.204Z,99058.40
2022-12-23T19:20:59.865Z,99071.20
2022-12-23T19:26:10.049Z,99079.80
2022-12-23T19:31:20.988Z,99089.80
2022-12-23T19:36:31.268Z,99090.20
2022-12-23T19:41:40.879Z,99101.20
2022-12-23T19:46:51.742Z,99102.40
2022-12-23T19:52:01.819Z,99091.40
2022-12-23T19:57:11.690Z,99096.20
2022-12-23T20:02:23.744Z,99094.00
2022-12-23T20:07:33.449Z,99096.40
2022-12-23T20:12:43.850Z,99100.60
2022-12-23T20:17:53.766Z,99093.60
2022-12-23T20:23:03.567Z,99091.00
2022-12-23T20:28:13.452Z,99092.60
2022-12-23T20:33:23.801Z,99105.20
2022-12-23T20:38:35.010Z,99105.60
2022-12-23T20:43:56.837Z,99106.40
2022-12-23T20:49:15.227Z,99110.60
2022-12-23T20:54:32.118Z,99118.60
2022-12-23T20:59:43.600Z,99126.40
2022-12-23T21:04:53.234Z,99123.60
2022-12-23T21:10:03.153Z,99130.80
2022-12-23T21:15:13.848Z,99124.20
2022-12-23T21:20:24.246Z,99133.40
2022-12-23T21:25:34.140Z,99141.40
2022-12-23T21:30:45.070Z,99143.80
2022-12-23T21:35:55.037Z,99147.80
2022-12-23T21:41:11.182Z,99157.80
2022-12-23T21:46:23.573Z,99148.80
2022-12-23T21:51:39.996Z,99158.40
2022-12-23T21:56:50.883Z,99157.00
2022-12-23T22:02:01.073Z,99160.20
2022-12-23T22:07:11.227Z,99159.00
2022-12-23T22:12:20.904Z,99162.60
2022-12-23T22:17:30.607Z,99163.80
2022-12-23T22:22:40.175Z,99171.80
2022-12-23T22:27:50.028Z,99173.60
2022-12-23T22:33:00.028Z,99177.80
2022-12-23T22:38:09.707Z,99189.60
2022-12-23T22:43:19.725Z,99185.20
2022-12-23T22:48:30.586Z,99188.60
2022-12-23T22:53:40.672Z,99196.40
2022-12-23T22:58:50.665Z,99197.80
2022-12-23T23:04:03.397Z,99184.40
2022-12-23T23:09:18.557Z,99193.40
2022-12-23T23:14:28.473Z,99194.60
2022-12-23T23:19:38.165Z,99189.20
2022-12-23T23:24:48.323Z,99199.80
2022-12-23T23:29:58.027Z,99196.40
2022-12-23T23:35:10.851Z,99206.20
2022-12-23T23:40:21.237Z,99208.40
2022-12-23T23:45:31.946Z,99211.00
2022-12-23T23:50:42.289Z,99205.40
2022-12-23T23:55:51.997Z,99203.20
